Aviation Digital Data Service (ADDS)

Output produced by METARs form (2037 UTC 21 July 2017)
found at http://www.aviationweather.gov/adds/metars/
 
UTAA 212000Z 22003KT 9999 NSC 27/03 Q1008 NOSIG
TAF UTAA 211630Z 2118/2218 02014KT 5000 SCT050 530009 
     TEMPO 2118/2203 21014KT 3000 HZ
       
UTAA 212000Z 22003KT 9999 NSC 27/03 Q1008 NOSIG
TAF UTAA 211630Z 2118/2218 02014KT 5000 SCT050 530009 
     TEMPO 2118/2203 21014KT 3000 HZ
       
UTAK 212000Z 05008KT CAVOK 29/06 Q1009 NOSIG
TAF UTAK 211630Z 2118/2218 34016KT CAVOK 530009 
     TEMPO 2118/2121 27016KT 
     TEMPO 2121/2203 VRB04KT SCT026 
     BECMG 2203/2204 10016KT 
     TEMPO 2204/2210 15018G28KT
       
UTAM 212000Z 36008KT 6000 SKC 26/06 Q1006 NOSIG
TAF UTAM 211630Z 2118/2218 03016KT 5000 NSC 530009 
     TEMPO 2118/2124 33014KT 
     TEMPO 2206/2215 36012G22KT 3000 DRDU
       
UTAT 212000Z 05008KT CAVOK 27/10 Q1010 NOSIG
TAF UTAT 211638Z 2118/2218 01012KT CAVOK 530009 
     TEMPO 2206/2212 07016G26KT
       
UTAV 212000Z 36008KT 7000 SKC 27/06 Q1005 NOSIG
TAF UTAV 211630Z 2118/2218 04016KT 5000 SKC 530007 
     TEMPO 2118/2202 01016G26KT 
     BECMG 2203/2204 CAVOK 530009
       
UTDD 212030Z 12001MPS 9999 FEW066 23/11 Q1007 R09/CLRD// NOSIG RMK QFE687/0916
TAF UTDD 211800Z 2119/2207 VRB02MPS 6000 FEW066CB SCT100
       
UTDK 212030Z 02006MPS 9999 NSC 26/10 Q1006 R01/09//70 RMK QFE697/0930
TAF UTDK 211800Z 2119/2204 03005MPS 6000 FEW066 SCT100 
     TEMPO 2119/2204 VRB02MPS
       
UTDL 212030Z 24003MPS 9999 FEW230 24/13 Q1006 88CLRD70 NOSIG RMK QFE717/0956
TAF UTDL 211800Z 2119/2204 23004MPS 9999 NSC 
     TEMPO 2119/2204 VRB03MPS
       
UTDT 212030Z 04001MPS 9999 FEW200 24/14 Q1003 35////// RMK QFE713/0951
TAF UTDT 211800Z 2119/2204 VRB02MPS 6000 FEW066 SCT100
       
UTFA 212000Z 03003KT 010V070 8000 NSC 22/15 Q1007
TAF UTFA 211500Z 2116/2201 05008KT 9999 FEW050CB 
     TEMPO 2116/2201 24012KT SCT050CB BKN100
       
UTFF 211600Z 16002KT 9999 NSC 29/08 Q1006 R18/CLRD70
TAF UTFF 211200Z 2113/2122 16010KT 9999 NSC 
     TEMPO 2113/2116 35005KT
       
UTFN 212000Z 33004KT 9999 NSC 24/14 Q1006 R28/CLRD70 NOSIG
TAF UTFN 211700Z 2118/2218 34008KT 9999 NSC TX37/2210Z 
     TEMPO 2118/2203 24012KT FEW050CB SCT100
       
UTNN 212000Z 35004KT CAVOK 25/14 Q1010 R33/CLRD60 NOSIG
TAF UTNN 211100Z 2112/2212 01012G22KT CAVOK 
     TEMPO 2118/2204 VRB04KT 
     TEMPO 2204/2212 06012KT
       
UTNU 211800Z 01006KT CAVOK 24/12 Q1009 R31/CLRD70 NOSIG
TAF UTNU 211700Z 2118/2218 36010G20KT 7000 NSC 
     TEMPO 2118/2124 VRB05KT
       
UTSA 212000Z 02004KT 9999 NSC 27/M01 Q1006 R07/CLRD70 NOSIG
TAF UTSA 211701Z 2118/2218 01010KT 7000 NSC TX38/2210Z 
     TEMPO 2118/2204 VRB03KT 
     TEMPO 2204/2214 02016G26KT
       
UTSB 212000Z 35008KT CAVOK 24/05 Q1005 R01/CLRD70 NOSIG
TAF UTSB 211700Z 2118/2218 36010KT 7000 NSC TX38/2210Z 
     TEMPO 2118/2204 VRB03KT 
     TEMPO 2204/2214 01016G26KT
       
UTSK 212000Z 35006KT CAVOK 24/07 Q1003 R16/CLRD70
TAF UTSK 211150Z 2113/2122 27010G20KT CAVOK 
     TEMPO 2113/2120 32014G24KT
       
UTSS 212000Z 13006KT 100V160 6000 NSC 25/06 Q1008 R09/70D NOSIG
TAF COR UTSS 211700Z 2118/2218 13010KT 9999 NSC TX36/2209Z 
     TEMPO 2206/2214 07014G24KT
       
UTST 212000Z 23004KT CAVOK 26/06 Q1002 R88/CLRD70 NOSIG
TAF UTST 211700Z 2118/2218 23008G18KT 6000 NSC TX40/2211Z 
     TEMPO 2202/2212 28012G22KT
       
UTTT 212000Z 07006KT CAVOK 24/11 Q1006 R08R/CLRD70 NOSIG
TAF UTTT 211700Z 2118/2218 06012KT 7000 NSC TX37/2210Z
       
UTAT 212000Z 05008KT CAVOK 27/10 Q1010 NOSIG
TAF UTAT 211638Z 2118/2218 01012KT CAVOK 530009 
     TEMPO 2206/2212 07016G26KT
       
UTAM 212000Z 36008KT 6000 SKC 26/06 Q1006 NOSIG
TAF UTAM 211630Z 2118/2218 03016KT 5000 NSC 530009 
     TEMPO 2118/2124 33014KT 
     TEMPO 2206/2215 36012G22KT 3000 DRDU
       
UTAV 212000Z 36008KT 7000 SKC 27/06 Q1005 NOSIG
TAF UTAV 211630Z 2118/2218 04016KT 5000 SKC 530007 
     TEMPO 2118/2202 01016G26KT 
     BECMG 2203/2204 CAVOK 530009
       
UTAK 212000Z 05008KT CAVOK 29/06 Q1009 NOSIG
TAF UTAK 211630Z 2118/2218 34016KT CAVOK 530009 
     TEMPO 2118/2121 27016KT 
     TEMPO 2121/2203 VRB04KT SCT026 
     BECMG 2203/2204 10016KT 
     TEMPO 2204/2210 15018G28KT